Time;durP1;ratioP1;P1;durP2;ratioP2;P2;SDS_P1;SDS_P2;PMS_P1;PMS_P2;Temp;Humidity;BMP_temperature;BMP_pressure;BME280_temperature;BME280_humidity;BME280_pressure;Samples;Min_cycle;Max_cycle;Signal;HPM_P1;HPM_P2
2023/11/13 00:00:15;;;;;;;1.50;1.40;;;17.70;69.40;;;;;;5056419;28;20445;-88
2023/11/13 00:02:41;;;;;;;1.47;1.37;;;17.70;69.40;;;;;;5056234;28;20534;-87
2023/11/13 00:05:08;;;;;;;1.60;1.27;;;17.70;70.30;;;;;;5056199;28;20453;-87
2023/11/13 00:07:35;;;;;;;1.53;1.43;;;17.70;69.50;;;;;;5056167;28;20488;-87
2023/11/13 00:10:02;;;;;;;2.20;1.77;;;17.70;69.40;;;;;;5056162;28;20433;-87
2023/11/13 00:12:29;;;;;;;1.60;1.47;;;17.60;69.30;;;;;;5055682;28;20481;-87
2023/11/13 00:14:56;;;;;;;1.57;1.47;;;17.60;69.30;;;;;;5055954;28;20998;-88
2023/11/13 00:17:25;;;;;;;2.70;1.60;;;17.60;69.50;;;;;;5055819;28;20524;-87
2023/11/13 00:19:52;;;;;;;1.60;1.50;;;17.60;69.30;;;;;;5056033;28;20464;-87
2023/11/13 00:22:18;;;;;;;1.60;1.50;;;17.60;69.30;;;;;;5055921;28;20440;-87
2023/11/13 00:24:46;;;;;;;1.83;1.60;;;17.60;69.30;;;;;;5055953;28;20438;-87
2023/11/13 00:27:13;;;;;;;1.53;1.43;;;17.60;69.40;;;;;;5055792;28;20471;-87
2023/11/13 00:29:40;;;;;;;1.87;1.77;;;17.60;69.30;;;;;;5055942;28;20448;-87
2023/11/13 00:32:07;;;;;;;1.50;1.40;;;17.60;69.30;;;;;;5055656;28;20576;-87
2023/11/13 00:34:35;;;;;;;2.03;1.77;;;17.60;69.30;;;;;;5055565;28;20469;-87
2023/11/13 00:37:02;;;;;;;2.20;1.33;;;17.60;69.30;;;;;;5055513;28;20837;-87
2023/11/13 00:39:30;;;;;;;1.40;1.17;;;17.60;69.30;;;;;;5055645;28;20448;-87
2023/11/13 00:41:57;;;;;;;2.57;1.53;;;17.60;69.30;;;;;;5055542;28;20461;-87
2023/11/13 00:44:24;;;;;;;1.67;1.40;;;17.60;69.30;;;;;;5055615;28;20798;-88
2023/11/13 00:46:51;;;;;;;2.53;1.20;;;17.60;70.10;;;;;;5055580;28;20529;-88
2023/11/13 00:49:18;;;;;;;3.10;1.73;;;17.60;69.30;;;;;;5055388;28;20446;-88
2023/11/13 00:51:46;;;;;;;1.60;1.50;;;17.60;69.30;;;;;;5055282;28;20572;-87
2023/11/13 00:54:13;;;;;;;1.50;1.30;;;17.60;69.30;;;;;;5055318;28;20481;-87
2023/11/13 00:56:40;;;;;;;2.33;1.70;;;17.60;69.30;;;;;;5055284;28;20936;-87
2023/11/13 00:59:07;;;;;;;1.57;1.47;;;17.60;69.30;;;;;;5054839;28;20474;-87
2023/11/13 01:01:34;;;;;;;1.97;1.77;;;17.60;69.30;;;;;;5055353;28;20809;-87
2023/11/13 01:04:01;;;;;;;1.83;1.50;;;17.60;69.30;;;;;;5055014;28;20956;-88
2023/11/13 01:06:27;;;;;;;1.60;1.50;;;17.60;69.30;;;;;;5055136;28;20436;-93
2023/11/13 01:08:56;;;;;;;1.50;1.37;;;17.60;69.30;;;;;;5055290;28;20441;-87
2023/11/13 01:11:23;;;;;;;1.70;1.50;;;17.60;69.30;;;;;;5054893;28;20488;-87
2023/11/13 01:13:50;;;;;;;1.30;1.20;;;17.60;69.30;;;;;;5055028;28;20438;-87
2023/11/13 01:16:19;;;;;;;1.63;1.40;;;17.60;69.30;;;;;;5054891;28;20461;-87
2023/11/13 01:18:47;;;;;;;1.73;1.63;;;17.50;69.20;;;;;;5054975;28;20856;-88
2023/11/13 01:21:14;;;;;;;1.60;1.50;;;17.50;69.30;;;;;;5054896;28;20433;-88
2023/11/13 01:23:41;;;;;;;1.80;1.70;;;17.60;69.30;;;;;;5054921;28;20473;-87
2023/11/13 01:26:09;;;;;;;2.00;1.40;;;17.60;69.30;;;;;;5054869;28;20491;-88
2023/11/13 01:28:36;;;;;;;2.13;1.70;;;17.50;69.20;;;;;;5054556;28;20525;-87
2023/11/13 01:31:03;;;;;;;1.83;1.67;;;17.50;70.10;;;;;;5054576;28;20486;-89
2023/11/13 01:33:30;;;;;;;1.70;1.43;;;17.50;69.20;;;;;;5054751;28;20464;-87
2023/11/13 01:35:56;;;;;;;1.50;1.40;;;17.50;69.20;;;;;;5054295;28;20470;-93
2023/11/13 01:38:23;;;;;;;1.60;1.40;;;17.50;69.20;;;;;;5054569;28;20474;-88
2023/11/13 01:40:51;;;;;;;1.93;1.60;;;17.50;69.30;;;;;;5054442;28;20458;-87
2023/11/13 01:43:23;;;;;;;1.43;1.20;;;17.50;69.20;;;;;;5054303;28;20445;-88
2023/11/13 01:45:53;;;;;;;1.33;1.23;;;17.50;69.30;;;;;;5054334;28;20864;-88
2023/11/13 01:48:20;;;;;;;1.30;1.20;;;17.50;69.30;;;;;;5054345;28;20434;-87
2023/11/13 01:50:47;;;;;;;1.83;1.60;;;17.50;69.30;;;;;;5054128;28;20997;-87
2023/11/13 01:53:17;;;;;;;1.63;1.53;;;17.50;69.20;;;;;;5054173;28;20442;-88
2023/11/13 01:55:44;;;;;;;1.60;1.50;;;17.50;69.20;;;;;;5054291;28;20441;-87
2023/11/13 01:58:12;;;;;;;1.50;1.40;;;17.50;69.20;;;;;;5054143;28;20459;-87
2023/11/13 02:00:40;;;;;;;1.30;1.20;;;17.50;69.20;;;;;;5054130;28;20442;-87
2023/11/13 02:03:09;;;;;;;1.73;1.50;;;17.50;69.20;;;;;;5053859;28;20438;-87
2023/11/13 02:05:36;;;;;;;1.60;1.50;;;17.50;69.30;;;;;;5053989;28;20485;-87
2023/11/13 02:08:03;;;;;;;1.40;1.23;;;17.50;69.20;;;;;;5054123;28;21008;-87
2023/11/13 02:10:30;;;;;;;1.40;1.27;;;17.50;69.20;;;;;;5053340;28;20435;-87
2023/11/13 02:12:57;;;;;;;2.00;1.57;;;17.50;69.20;;;;;;5053615;28;20489;-88
2023/11/13 02:15:24;;;;;;;1.70;1.40;;;17.50;69.30;;;;;;5053717;28;20480;-87
2023/11/13 02:18:03;;;;;;;1.60;1.50;;;17.50;69.20;;;;;;5053770;28;20512;-87
2023/11/13 02:20:31;;;;;;;1.40;1.30;;;17.50;69.20;;;;;;5053772;28;20440;-87
2023/11/13 02:22:58;;;;;;;2.83;1.40;;;17.50;69.30;;;;;;5053795;28;20512;-87
2023/11/13 02:25:27;;;;;;;1.50;1.37;;;17.50;69.20;;;;;;5053678;28;20480;-87
2023/11/13 02:27:57;;;;;;;1.20;1.00;;;17.50;69.20;;;;;;5053617;28;20446;-88
2023/11/13 02:30:24;;;;;;;1.40;1.30;;;17.60;69.30;;;;;;5053589;28;20945;-87
2023/11/13 02:32:51;;;;;;;1.60;1.50;;;17.50;69.30;;;;;;5053327;28;20485;-87
2023/11/13 02:35:18;;;;;;;1.63;1.53;;;17.50;69.20;;;;;;5053403;28;20548;-88
2023/11/13 02:37:45;;;;;;;1.57;1.47;;;17.50;69.10;;;;;;5053421;28;20442;-87
2023/11/13 02:40:13;;;;;;;1.40;1.30;;;17.50;69.20;;;;;;5053570;28;20508;-88
2023/11/13 02:42:42;;;;;;;1.83;1.50;;;17.50;69.20;;;;;;5053378;28;20473;-87
2023/11/13 02:45:10;;;;;;;1.30;1.20;;;17.50;69.20;;;;;;5053492;28;20540;-87
2023/11/13 02:47:37;;;;;;;1.40;1.30;;;17.50;69.20;;;;;;5053192;28;20437;-87
2023/11/13 02:50:05;;;;;;;1.20;1.10;;;17.50;69.20;;;;;;5053155;28;20437;-87
2023/11/13 02:52:32;;;;;;;1.83;1.73;;;17.50;69.20;;;;;;5053080;28;20490;-88
2023/11/13 02:54:59;;;;;;;1.30;1.17;;;17.50;69.10;;;;;;5053194;28;20925;-87
2023/11/13 02:57:25;;;;;;;1.50;1.40;;;17.50;69.20;;;;;;5053116;28;20430;-88
2023/11/13 02:59:54;;;;;;;1.37;1.10;;;17.50;69.80;;;;;;5053093;28;20465;-88
2023/11/13 03:02:19;;;;;;;1.40;1.20;;;17.50;70.00;;;;;;5052871;28;20529;-87
2023/11/13 03:04:46;;;;;;;1.63;1.53;;;17.50;70.00;;;;;;5052961;28;20552;-87
2023/11/13 03:07:13;;;;;;;1.60;1.37;;;17.50;69.20;;;;;;5053154;28;20524;-88
2023/11/13 03:09:40;;;;;;;1.20;1.00;;;17.50;69.20;;;;;;5052930;28;20529;-87
2023/11/13 03:12:07;;;;;;;1.30;1.07;;;17.50;69.20;;;;;;5052789;28;20517;-87
2023/11/13 03:14:34;;;;;;;1.20;1.00;;;17.50;69.20;;;;;;5052886;28;20443;-87
2023/11/13 03:17:03;;;;;;;1.23;1.13;;;17.50;69.20;;;;;;5052921;28;20442;-88
2023/11/13 03:19:29;;;;;;;1.43;1.33;;;17.50;69.20;;;;;;5052960;28;20442;-88
2023/11/13 03:21:56;;;;;;;1.47;1.37;;;17.50;69.20;;;;;;5055716;28;20473;-88
2023/11/13 03:24:23;;;;;;;1.33;1.10;;;17.50;69.20;;;;;;5056992;28;20444;-87
2023/11/13 03:26:50;;;;;;;1.30;1.20;;;17.50;69.20;;;;;;5056927;28;20553;-87
2023/11/13 03:29:17;;;;;;;1.40;1.20;;;17.50;69.20;;;;;;5057062;28;20858;-87
2023/11/13 03:31:44;;;;;;;1.30;1.10;;;17.50;69.20;;;;;;5056645;28;20539;-88
2023/11/13 03:34:12;;;;;;;1.53;1.10;;;17.50;69.20;;;;;;5056561;28;20458;-93
2023/11/13 03:36:40;;;;;;;1.30;1.20;;;17.50;69.20;;;;;;5056817;28;20448;-88
2023/11/13 03:39:07;;;;;;;1.80;1.70;;;17.50;69.20;;;;;;5056667;28;20441;-87
2023/11/13 03:41:34;;;;;;;1.30;1.20;;;17.50;69.20;;;;;;5056746;28;20888;-87
2023/11/13 03:44:01;;;;;;;1.50;1.27;;;17.50;69.20;;;;;;5056682;28;21019;-87
2023/11/13 03:46:28;;;;;;;1.70;1.60;;;17.50;69.20;;;;;;5056675;28;20433;-93
2023/11/13 03:48:55;;;;;;;1.40;1.30;;;17.50;69.20;;;;;;5056581;28;21019;-87
2023/11/13 03:51:24;;;;;;;1.10;1.00;;;17.40;69.20;;;;;;5056562;28;20435;-87
2023/11/13 03:53:51;;;;;;;1.80;1.70;;;17.50;69.20;;;;;;5056269;28;20435;-87
2023/11/13 03:56:20;;;;;;;1.70;1.50;;;17.50;69.20;;;;;;5056461;28;20496;-93
2023/11/13 03:58:47;;;;;;;1.43;1.33;;;17.50;69.20;;;;;;5056442;28;20520;-87
2023/11/13 04:01:15;;;;;;;1.83;1.43;;;17.50;69.20;;;;;;5056371;28;20465;-87
2023/11/13 04:03:42;;;;;;;1.40;1.20;;;17.50;69.20;;;;;;5056100;28;20548;-87
2023/11/13 04:06:09;;;;;;;1.60;1.30;;;17.50;69.20;;;;;;5056434;28;20449;-87
2023/11/13 04:08:38;;;;;;;1.80;1.30;;;17.50;69.20;;;;;;5056167;28;20908;-87
2023/11/13 04:11:05;;;;;;;1.37;1.20;;;17.50;69.20;;;;;;5055879;28;20465;-87
2023/11/13 04:13:34;;;;;;;1.27;1.17;;;17.50;69.20;;;;;;5056264;28;20838;-87
2023/11/13 04:16:02;;;;;;;1.37;1.27;;;17.50;69.20;;;;;;5056031;28;20919;-87
2023/11/13 04:18:30;;;;;;;1.30;1.20;;;17.40;69.10;;;;;;5055999;28;20473;-87
2023/11/13 04:20:57;;;;;;;1.40;1.30;;;17.40;69.20;;;;;;5056028;28;20439;-88
2023/11/13 04:23:24;;;;;;;1.40;1.30;;;17.40;69.20;;;;;;5055807;28;20484;-87
2023/11/13 04:25:53;;;;;;;1.40;1.30;;;17.40;69.10;;;;;;5055813;28;20437;-87
2023/11/13 04:28:22;;;;;;;1.53;1.10;;;17.40;69.10;;;;;;5055938;28;20948;-87
2023/11/13 04:30:49;;;;;;;1.80;1.20;;;17.50;69.20;;;;;;5055891;28;20466;-88
2023/11/13 04:33:16;;;;;;;1.33;1.17;;;17.40;69.10;;;;;;5054817;28;20841;-87
2023/11/13 04:35:42;;;;;;;1.27;1.17;;;17.40;69.10;;;;;;5055715;28;20476;-88
2023/11/13 04:38:09;;;;;;;1.40;1.30;;;17.50;69.20;;;;;;5055677;28;20516;-93
2023/11/13 04:40:37;;;;;;;1.50;1.40;;;17.40;69.10;;;;;;5055494;28;20790;-87
2023/11/13 04:43:05;;;;;;;1.60;1.20;;;17.50;69.20;;;;;;5055625;28;20538;-87
2023/11/13 04:45:32;;;;;;;1.30;1.20;;;17.50;69.20;;;;;;5055672;28;20437;-87
2023/11/13 04:47:58;;;;;;;1.50;1.20;;;17.40;69.10;;;;;;5055602;28;20516;-88
2023/11/13 04:50:25;;;;;;;1.37;1.23;;;17.40;69.10;;;;;;5055510;28;20791;-87
2023/11/13 04:52:52;;;;;;;1.30;1.13;;;17.40;69.10;;;;;;5055290;28;21094;-93
2023/11/13 04:55:19;;;;;;;1.47;1.17;;;17.40;69.10;;;;;;5055371;28;20529;-88
2023/11/13 04:57:46;;;;;;;1.83;1.53;;;17.40;69.10;;;;;;5055305;28;20528;-87
2023/11/13 05:00:15;;;;;;;1.73;1.20;;;17.40;69.20;;;;;;5055065;28;20465;-87
2023/11/13 05:02:42;;;;;;;1.30;1.03;;;17.40;69.10;;;;;;5055409;28;20449;-88
2023/11/13 05:05:11;;;;;;;1.33;1.23;;;17.40;69.20;;;;;;5055155;28;20516;-88
2023/11/13 05:07:39;;;;;;;1.20;1.10;;;17.40;69.20;;;;;;5055341;28;20430;-87
2023/11/13 05:10:07;;;;;;;1.30;1.10;;;17.40;69.20;;;;;;5055342;28;20443;-88
2023/11/13 05:12:33;;;;;;;1.47;1.10;;;17.40;69.20;;;;;;5054803;28;20811;-88
2023/11/13 05:15:00;;;;;;;1.20;1.07;;;17.40;69.20;;;;;;5054928;28;20529;-88
2023/11/13 05:17:30;;;;;;;1.13;0.90;;;17.50;69.30;;;;;;5054992;28;20537;-88
2023/11/13 05:19:59;;;;;;;1.13;1.03;;;17.40;69.20;;;;;;5055004;28;20940;-88
2023/11/13 05:22:26;;;;;;;1.20;1.00;;;17.40;69.20;;;;;;5054800;28;20482;-88
2023/11/13 05:24:53;;;;;;;1.07;0.87;;;17.40;70.00;;;;;;5054841;28;20443;-94
2023/11/13 05:27:19;;;;;;;1.63;1.53;;;17.50;69.30;;;;;;5054923;28;20499;-87
2023/11/13 05:29:46;;;;;;;1.20;1.10;;;17.40;69.20;;;;;;5054861;28;20529;-87
2023/11/13 05:32:13;;;;;;;1.17;1.00;;;17.40;69.30;;;;;;5054629;28;20842;-89
2023/11/13 05:34:41;;;;;;;1.50;1.13;;;17.40;69.30;;;;;;5054457;28;20486;-88
2023/11/13 05:37:09;;;;;;;1.30;1.20;;;17.40;69.30;;;;;;5054684;28;20460;-88
2023/11/13 05:39:36;;;;;;;1.40;1.10;;;17.40;69.30;;;;;;5054661;28;20847;-88
2023/11/13 05:42:03;;;;;;;1.60;1.00;;;17.40;69.30;;;;;;5054463;28;20519;-94
2023/11/13 05:44:30;;;;;;;1.80;1.70;;;17.40;69.30;;;;;;5053361;28;20515;-94
2023/11/13 05:46:57;;;;;;;1.43;1.20;;;17.40;70.10;;;;;;5054284;28;20488;-87
2023/11/13 05:49:23;;;;;;;1.33;1.23;;;17.40;69.30;;;;;;5054371;28;20437;-87
2023/11/13 05:51:52;;;;;;;1.10;1.00;;;17.40;69.30;;;;;;5054304;28;20469;-93
2023/11/13 05:54:19;;;;;;;1.30;1.03;;;17.40;69.30;;;;;;5054274;28;20442;-88
2023/11/13 05:56:46;;;;;;;1.50;1.20;;;17.40;69.30;;;;;;5054221;28;20437;-87
2023/11/13 05:59:14;;;;;;;1.70;1.20;;;17.40;69.30;;;;;;5054253;28;20454;-89
2023/11/13 06:01:41;;;;;;;1.50;1.10;;;17.40;69.40;;;;;;5054585;28;20530;-88
2023/11/13 06:04:08;;;;;;;1.50;1.40;;;17.40;69.30;;;;;;5054073;28;20493;-87
2023/11/13 06:06:35;;;;;;;1.30;1.10;;;17.40;69.30;;;;;;5054289;28;20525;-88
2023/11/13 06:09:04;;;;;;;1.40;1.10;;;17.40;69.30;;;;;;5054108;28;20540;-88
2023/11/13 06:11:31;;;;;;;1.30;1.00;;;17.40;69.30;;;;;;5053668;28;20501;-87
2023/11/13 06:13:58;;;;;;;1.50;1.00;;;17.40;69.30;;;;;;5053703;28;20852;-93
2023/11/13 06:16:26;;;;;;;1.20;1.10;;;17.40;70.20;;;;;;5053873;28;20524;-87
2023/11/13 06:18:53;;;;;;;1.10;1.00;;;17.40;69.40;;;;;;5053949;28;20445;-88
2023/11/13 06:21:21;;;;;;;1.30;1.00;;;17.40;69.40;;;;;;5053760;28;20442;-87
2023/11/13 06:23:48;;;;;;;1.20;1.03;;;17.40;69.40;;;;;;5053540;28;21007;-87
2023/11/13 06:26:16;;;;;;;1.20;1.10;;;17.40;69.40;;;;;;5053578;28;20480;-87
2023/11/13 06:28:43;;;;;;;1.23;1.10;;;17.40;69.40;;;;;;5053725;28;20438;-93
2023/11/13 06:31:10;;;;;;;1.20;0.90;;;17.40;70.30;;;;;;5053604;28;20524;-87
2023/11/13 06:33:37;;;;;;;1.30;1.00;;;17.40;69.50;;;;;;5053378;28;20580;-87
2023/11/13 06:36:06;;;;;;;1.20;1.10;;;17.40;69.50;;;;;;5053440;28;21000;-88
2023/11/13 06:38:32;;;;;;;1.30;1.20;;;17.40;69.50;;;;;;5053757;28;20537;-87
2023/11/13 06:41:02;;;;;;;1.20;0.97;;;17.40;69.50;;;;;;5053689;28;20992;-87
2023/11/13 06:43:30;;;;;;;1.30;1.10;;;17.40;69.40;;;;;;5053353;28;20438;-87
2023/11/13 06:45:58;;;;;;;1.30;1.00;;;17.40;69.50;;;;;;5053285;28;20536;-87
2023/11/13 06:48:25;;;;;;;1.40;1.17;;;17.40;70.30;;;;;;5053446;28;20446;-87
2023/11/13 06:50:52;;;;;;;1.40;1.00;;;17.40;69.50;;;;;;5053510;28;20446;-93
2023/11/13 06:53:19;;;;;;;1.30;1.13;;;17.40;69.50;;;;;;5053237;28;20488;-93
2023/11/13 06:55:46;;;;;;;1.40;1.30;;;17.40;69.50;;;;;;5052779;28;20475;-88
2023/11/13 06:58:12;;;;;;;1.40;1.30;;;17.40;69.50;;;;;;5053305;28;20504;-88
2023/11/13 07:00:41;;;;;;;1.10;0.90;;;17.40;69.50;;;;;;5053482;28;20528;-87
2023/11/13 07:03:08;;;;;;;1.20;1.10;;;17.40;69.50;;;;;;5052888;28;20540;-87
2023/11/13 07:05:35;;;;;;;1.60;1.00;;;17.40;69.50;;;;;;5053260;28;20438;-87
2023/11/13 07:08:02;;;;;;;1.50;1.03;;;17.40;69.50;;;;;;5053102;28;20445;-88
2023/11/13 07:10:33;;;;;;;1.40;1.23;;;17.40;69.50;;;;;;5053103;28;20487;-89
2023/11/13 07:13:00;;;;;;;1.47;1.20;;;17.40;69.50;;;;;;5052898;28;20515;-92
2023/11/13 07:15:29;;;;;;;1.10;0.90;;;17.40;70.40;;;;;;5052904;28;20525;-87
2023/11/13 07:17:58;;;;;;;1.40;1.20;;;17.40;69.60;;;;;;5053019;28;20864;-88
2023/11/13 07:20:25;;;;;;;1.10;0.93;;;17.40;69.60;;;;;;5052952;28;20445;-88
2023/11/13 07:22:52;;;;;;;1.30;1.00;;;17.40;69.60;;;;;;5052899;28;20469;-87
2023/11/13 07:25:20;;;;;;;1.10;0.97;;;17.40;69.60;;;;;;5052946;28;20935;-88
2023/11/13 07:27:47;;;;;;;1.63;0.93;;;17.40;69.60;;;;;;5052970;28;20445;-88
2023/11/13 07:30:14;;;;;;;1.23;1.13;;;17.40;69.60;;;;;;5052921;28;20437;-87
2023/11/13 07:32:41;;;;;;;1.20;0.80;;;17.40;69.60;;;;;;5052651;28;20855;-87
2023/11/13 07:35:10;;;;;;;1.40;1.10;;;17.40;69.60;;;;;;5052597;28;20541;-88
2023/11/13 07:37:37;;;;;;;1.20;1.03;;;17.40;69.70;;;;;;5052784;28;20481;-87
2023/11/13 07:40:09;;;;;;;1.00;0.90;;;17.40;69.60;;;;;;5052902;28;20533;-88
2023/11/13 07:42:37;;;;;;;1.20;1.03;;;17.40;69.70;;;;;;5052833;28;20441;-88
2023/11/13 07:45:05;;;;;;;1.27;1.17;;;17.40;70.50;;;;;;5052891;28;20442;-88
2023/11/13 07:47:32;;;;;;;1.57;0.90;;;17.40;69.60;;;;;;5052910;28;20989;-88
2023/11/13 07:49:59;;;;;;;1.00;0.90;;;17.40;69.60;;;;;;5052766;28;20525;-88
2023/11/13 07:52:27;;;;;;;1.17;1.07;;;17.40;69.70;;;;;;5052709;28;20538;-88
2023/11/13 07:54:55;;;;;;;1.20;1.10;;;17.40;69.70;;;;;;5052537;28;20805;-87
2023/11/13 07:57:22;;;;;;;1.23;1.13;;;17.40;69.70;;;;;;5052692;28;20433;-87
2023/11/13 07:59:50;;;;;;;1.40;1.30;;;17.40;69.80;;;;;;5052550;28;20489;-87
2023/11/13 08:02:19;;;;;;;1.10;0.87;;;17.40;69.80;;;;;;5052546;28;20496;-88
2023/11/13 08:04:46;;;;;;;1.77;1.07;;;17.40;69.70;;;;;;5052569;28;20496;-88
2023/11/13 08:07:13;;;;;;;1.57;1.20;;;17.40;69.80;;;;;;5052523;28;20520;-88
2023/11/13 08:09:42;;;;;;;1.10;1.00;;;17.40;69.80;;;;;;5056233;28;20531;-88
2023/11/13 08:12:11;;;;;;;1.33;1.10;;;17.40;70.60;;;;;;5055942;28;20888;-87
2023/11/13 08:14:38;;;;;;;1.30;1.00;;;17.40;69.70;;;;;;5055995;28;20546;-87
2023/11/13 08:17:05;;;;;;;1.57;0.97;;;17.40;69.80;;;;;;5056089;28;20525;-87
2023/11/13 08:19:32;;;;;;;1.37;1.20;;;17.40;69.80;;;;;;5056038;28;20432;-94
2023/11/13 08:22:00;;;;;;;1.10;1.00;;;17.40;69.90;;;;;;5056062;28;20469;-93
2023/11/13 08:24:27;;;;;;;1.20;1.00;;;17.40;69.80;;;;;;5055978;28;20442;-87
2023/11/13 08:26:55;;;;;;;1.10;0.77;;;17.40;69.80;;;;;;5055999;28;20477;-88
2023/11/13 08:29:24;;;;;;;1.30;1.10;;;17.40;69.90;;;;;;5055774;28;20448;-90
2023/11/13 08:31:51;;;;;;;1.07;0.87;;;17.40;69.80;;;;;;5055748;28;20503;-88
2023/11/13 08:34:19;;;;;;;1.40;1.23;;;17.40;69.90;;;;;;5055468;28;20671;-88
2023/11/13 08:36:46;;;;;;;1.37;1.20;;;17.40;69.90;;;;;;5055742;28;20477;-88
2023/11/13 08:39:17;;;;;;;1.20;1.07;;;17.40;69.90;;;;;;5055683;28;20529;-88
2023/11/13 08:41:44;;;;;;;1.70;1.10;;;17.40;69.90;;;;;;5055697;28;20438;-88
2023/11/13 08:44:12;;;;;;;1.43;1.30;;;17.40;70.00;;;;;;5055809;28;20528;-87
2023/11/13 08:46:40;;;;;;;1.17;0.90;;;17.40;70.00;;;;;;5055489;28;20433;-88
2023/11/13 08:49:07;;;;;;;1.20;0.90;;;17.40;70.00;;;;;;5055578;28;20469;-87
2023/11/13 08:51:34;;;;;;;1.10;0.90;;;17.40;70.00;;;;;;5055510;28;20441;-87
2023/11/13 08:54:01;;;;;;;1.73;1.20;;;17.40;70.00;;;;;;5055106;28;20581;-88
2023/11/13 08:56:28;;;;;;;1.37;1.13;;;17.40;70.00;;;;;;5055298;28;20442;-87
2023/11/13 08:58:56;;;;;;;1.30;1.00;;;17.40;70.00;;;;;;5055162;28;20465;-88
2023/11/13 09:01:25;;;;;;;2.33;1.03;;;17.40;70.10;;;;;;5055300;28;20800;-87
2023/11/13 09:03:55;;;;;;;1.10;1.00;;;17.40;70.00;;;;;;5055141;28;20468;-88
2023/11/13 09:06:22;;;;;;;1.70;1.00;;;17.40;70.10;;;;;;5055081;28;20431;-87
2023/11/13 09:08:53;;;;;;;1.30;0.90;;;17.40;70.10;;;;;;5055005;28;20560;-87
2023/11/13 09:11:21;;;;;;;1.23;1.03;;;17.40;70.10;;;;;;5054823;28;20496;-88
2023/11/13 09:13:48;;;;;;;1.27;1.00;;;17.40;70.10;;;;;;5054792;28;20928;-87
2023/11/13 09:16:17;;;;;;;1.20;1.00;;;17.40;70.10;;;;;;5055156;28;20433;-88
2023/11/13 09:18:48;;;;;;;1.47;1.20;;;17.40;70.10;;;;;;5054688;28;20430;-88
2023/11/13 09:21:17;;;;;;;1.00;0.83;;;17.40;70.10;;;;;;5055140;28;20433;-88
2023/11/13 09:23:44;;;;;;;1.17;0.97;;;17.40;70.20;;;;;;5054810;28;20470;-88
2023/11/13 09:26:12;;;;;;;1.10;0.80;;;17.40;70.10;;;;;;5054800;28;20985;-88
2023/11/13 09:28:39;;;;;;;1.10;0.90;;;17.40;70.20;;;;;;5054760;28;20438;-88
2023/11/13 09:31:09;;;;;;;1.10;0.80;;;17.40;70.20;;;;;;5054821;28;20512;-88
2023/11/13 09:33:40;;;;;;;1.10;1.00;;;17.40;70.10;;;;;;5054625;28;20890;-88
2023/11/13 09:36:09;;;;;;;1.20;0.90;;;17.40;70.20;;;;;;5054519;28;20437;-88
2023/11/13 09:38:36;;;;;;;1.10;0.80;;;17.40;70.20;;;;;;5054419;28;20464;-88
2023/11/13 09:41:04;;;;;;;1.30;1.00;;;17.40;70.20;;;;;;5054621;28;20537;-88
2023/11/13 09:43:34;;;;;;;1.00;0.80;;;17.40;70.20;;;;;;5054507;28;20441;-88
2023/11/13 09:46:06;;;;;;;1.10;0.90;;;17.40;71.00;;;;;;5054558;28;20775;-87
2023/11/13 09:48:36;;;;;;;1.20;0.90;;;17.40;70.20;;;;;;5054484;28;20444;-88
2023/11/13 09:51:04;;;;;;;1.03;0.80;;;17.40;71.10;;;;;;5054623;28;20516;-88
2023/11/13 09:53:34;;;;;;;1.50;0.80;;;17.40;70.20;;;;;;5054243;28;20532;-88
2023/11/13 09:56:01;;;;;;;1.30;1.00;;;17.40;70.20;;;;;;5054089;28;20917;-88
2023/11/13 09:58:32;;;;;;;1.43;0.90;;;17.40;70.30;;;;;;5054180;28;20534;-88
2023/11/13 10:01:00;;;;;;;1.23;0.90;;;17.40;71.10;;;;;;5054367;28;20449;-89
2023/11/13 10:03:29;;;;;;;1.37;0.93;;;17.40;70.30;;;;;;5054168;28;20996;-92
2023/11/13 10:05:56;;;;;;;1.20;1.00;;;17.40;70.30;;;;;;5054822;28;20468;-94
2023/11/13 10:08:24;;;;;;;2.13;0.93;;;17.40;70.30;;;;;;5054340;28;20534;-93
2023/11/13 10:10:55;;;;;;;1.53;1.10;;;17.40;70.40;;;;;;5054042;28;20445;-94
2023/11/13 10:13:26;;;;;;;1.10;0.80;;;17.50;70.90;;;;;;5055491;28;20430;-95
2023/11/13 10:15:53;;;;;;;1.40;1.00;;;17.50;70.90;;;;;;5054363;28;20449;-94
2023/11/13 10:18:26;;;;;;;2.83;1.90;;;17.50;70.70;;;;;;5053785;28;20437;-90
2023/11/13 10:20:53;;;;;;;2.90;1.80;;;17.50;70.90;;;;;;5053262;28;20930;-89
2023/11/13 10:23:20;;;;;;;6.67;1.67;;;17.50;71.50;;;;;;5054281;28;20523;-89
2023/11/13 10:25:50;;;;;;;6.57;1.33;;;17.50;71.70;;;;;;5053781;28;20441;-90
2023/11/13 10:28:19;;;;;;;3.70;1.43;;;17.50;71.90;;;;;;5053795;28;20457;-88
2023/11/13 10:30:56;;;;;;;3.93;1.20;;;17.50;71.60;;;;;;5052292;28;20516;-83
2023/11/13 10:33:24;;;;;;;1.90;1.30;;;17.60;71.60;;;;;;5053031;28;20462;-86
2023/11/13 10:35:51;;;;;;;3.70;1.27;;;17.70;71.70;;;;;;5053832;28;20443;-85
2023/11/13 10:38:20;;;;;;;6.17;1.30;;;17.70;71.70;;;;;;5053619;28;20450;-88
2023/11/13 10:43:53;;;;;;;2.27;1.30;;;17.80;71.40;;;;;;5055042;28;20445;-86
2023/11/13 10:46:30;;;;;;;4.27;2.20;;;17.90;71.20;;;;;;5073695;28;20545;-86
2023/11/13 10:48:58;;;;;;;10.63;9.03;;;18.00;71.20;;;;;;5073284;28;20526;-87
2023/11/13 10:51:27;;;;;;;8.90;7.83;;;18.00;71.30;;;;;;5055418;28;20443;-87
2023/11/13 10:53:55;;;;;;;6.23;4.33;;;18.10;71.10;;;;;;5073108;28;20473;-86
2023/11/13 10:56:24;;;;;;;4.83;4.30;;;18.20;71.20;;;;;;5072988;28;20440;-86
2023/11/13 10:58:53;;;;;;;3.90;3.60;;;18.20;71.20;;;;;;5073046;28;20467;-86
2023/11/13 11:01:25;;;;;;;4.33;3.93;;;18.30;70.90;;;;;;5073093;28;20478;-87
2023/11/13 11:03:56;;;;;;;8.03;3.63;;;18.40;70.80;;;;;;5073374;28;20461;-89
2023/11/13 11:06:32;;;;;;;4.97;4.47;;;18.40;70.90;;;;;;5073179;28;20520;-87
2023/11/13 11:09:03;;;;;;;3.87;3.47;;;18.50;70.90;;;;;;5073621;28;20799;-86
2023/11/13 11:11:34;;;;;;;5.90;4.07;;;18.60;71.20;;;;;;5073218;28;20573;-88
2023/11/13 11:14:09;;;;;;;6.17;4.00;;;18.60;70.80;;;;;;5073163;28;20470;-88
2023/11/13 11:16:42;;;;;;;8.00;3.30;;;18.70;70.80;;;;;;5073588;28;20430;-87
2023/11/13 11:19:17;;;;;;;6.17;2.90;;;18.70;70.80;;;;;;5073521;28;20497;-87
2023/11/13 11:21:50;;;;;;;3.83;3.53;;;18.80;70.90;;;;;;5073353;28;20437;-92
2023/11/13 11:24:39;;;;;;;15.83;4.67;;;18.90;70.90;;;;;;5073504;28;20478;-87
2023/11/13 11:27:06;;;;;;;7.53;3.47;;;18.90;70.90;;;;;;5073167;28;20443;-88
2023/11/13 11:29:36;;;;;;;6.93;3.30;;;18.90;71.10;;;;;;5073106;28;20439;-87
2023/11/13 11:32:19;;;;;;;3.30;3.00;;;19.00;71.10;;;;;;5073207;28;20963;-87
2023/11/13 11:34:52;;;;;;;5.10;3.07;;;19.00;71.20;;;;;;5073010;28;20513;-87
2023/11/13 11:37:19;;;;;;;4.03;2.63;;;19.00;71.20;;;;;;5069126;28;20440;-86
2023/11/13 11:39:47;;;;;;;5.00;4.37;;;19.10;71.40;;;;;;5052853;28;20468;-86
2023/11/13 11:42:23;;;;;;;5.93;4.10;;;19.10;71.60;;;;;;5054638;28;20436;-86
2023/11/13 11:45:03;;;;;;;7.50;3.90;;;19.10;71.40;;;;;;5056998;28;20440;-86
2023/11/13 11:47:30;;;;;;;5.30;3.07;;;19.20;71.60;;;;;;5057019;28;20515;-87
2023/11/13 11:49:58;;;;;;;4.20;3.20;;;19.30;71.70;;;;;;5057106;28;20881;-86
2023/11/13 11:52:43;;;;;;;2.80;2.60;;;19.30;71.90;;;;;;5056772;28;20443;-87
2023/11/13 11:55:12;;;;;;;16.53;4.27;;;19.30;71.90;;;;;;5056915;28;20488;-87
2023/11/13 11:57:43;;;;;;;70.80;20.17;;;19.30;73.00;;;;;;5056729;28;20436;-87
2023/11/13 12:00:15;;;;;;;91.20;18.40;;;19.40;73.10;;;;;;5056836;28;20442;-86
2023/11/13 12:02:43;;;;;;;75.10;19.70;;;19.40;73.10;;;;;;5057008;28;20431;-86
2023/11/13 12:05:10;;;;;;;103.43;23.37;;;19.40;73.20;;;;;;5056722;28;20433;-86
2023/11/13 12:07:37;;;;;;;102.50;25.33;;;19.50;73.60;;;;;;5056604;28;20483;-86
2023/11/13 12:10:08;;;;;;;107.40;25.17;;;19.50;74.10;;;;;;5056567;28;20447;-90
2023/11/13 12:12:36;;;;;;;95.30;24.43;;;19.60;74.00;;;;;;5056599;28;20802;-84
2023/11/13 12:15:07;;;;;;;82.73;19.93;;;19.60;73.80;;;;;;5056394;28;20499;-84
2023/11/13 12:17:35;;;;;;;83.77;22.30;;;19.60;73.70;;;;;;5056183;28;20434;-85
2023/11/13 12:20:03;;;;;;;78.90;22.50;;;19.70;73.80;;;;;;5056363;28;20624;-84
2023/11/13 12:22:34;;;;;;;77.27;22.53;;;19.70;73.80;;;;;;5056195;28;20440;-84
2023/11/13 12:25:03;;;;;;;85.77;20.83;;;19.70;73.60;;;;;;5063614;28;20459;-84
2023/11/13 12:27:30;;;;;;;79.73;20.33;;;19.80;73.60;;;;;;5073307;28;20847;-84
2023/11/13 12:30:01;;;;;;;87.17;23.03;;;19.80;74.40;;;;;;5062666;28;20424;-84
2023/11/13 12:32:29;;;;;;;60.97;20.27;;;19.90;73.60;;;;;;5069052;28;20431;-84
2023/11/13 12:34:58;;;;;;;69.73;19.27;;;19.90;73.60;;;;;;5075901;28;20874;-84
2023/11/13 12:37:27;;;;;;;64.17;18.43;;;19.90;73.50;;;;;;5074709;28;20535;-85
2023/11/13 12:39:54;;;;;;;69.97;20.83;;;19.90;73.40;;;;;;5069197;28;20479;-84
2023/11/13 12:42:21;;;;;;;69.53;17.20;;;20.00;73.40;;;;;;5075841;28;20530;-84
2023/11/13 12:44:48;;;;;;;66.17;17.73;;;20.00;73.40;;;;;;5075794;28;20501;-84
2023/11/13 12:47:16;;;;;;;62.33;17.30;;;20.00;74.20;;;;;;5075793;28;20470;-85
2023/11/13 12:49:44;;;;;;;61.77;17.40;;;20.00;73.20;;;;;;5075758;28;20471;-84
2023/11/13 12:52:17;;;;;;;54.73;17.97;;;20.10;73.30;;;;;;5075593;28;20438;-84